createdAt,value
2023-02-06T00:00:50.019Z,8.73
2023-02-06T00:03:16.476Z,5.93
2023-02-06T00:05:42.950Z,4.30
2023-02-06T00:08:09.397Z,3.75
2023-02-06T00:10:35.813Z,3.97
2023-02-06T00:13:02.236Z,8.90
2023-02-06T00:15:28.677Z,5.43
2023-02-06T00:17:55.112Z,3.30
2023-02-06T00:20:21.599Z,3.97
2023-02-06T00:22:50.369Z,3.40
2023-02-06T00:25:16.877Z,4.15
2023-02-06T00:27:43.397Z,3.45
2023-02-06T00:30:12.345Z,3.28
2023-02-06T00:32:38.781Z,3.33
2023-02-06T00:35:05.365Z,4.93
2023-02-06T00:37:31.828Z,3.63
2023-02-06T00:39:58.248Z,3.15
2023-02-06T00:42:24.616Z,3.30
2023-02-06T00:44:51.029Z,4.47
2023-02-06T00:47:17.412Z,4.40
2023-02-06T00:49:43.835Z,4.22
2023-02-06T00:52:10.228Z,4.10
2023-02-06T00:54:36.612Z,5.75
2023-02-06T00:57:03.020Z,4.78
2023-02-06T00:59:29.396Z,4.05
2023-02-06T01:01:55.853Z,4.63
2023-02-06T01:04:22.283Z,4.70
2023-02-06T01:06:48.721Z,5.70
2023-02-06T01:09:15.114Z,5.07
2023-02-06T01:11:41.555Z,5.07
2023-02-06T01:14:07.972Z,4.90
2023-02-06T01:16:34.402Z,6.22
2023-02-06T01:19:00.802Z,4.70
2023-02-06T01:21:27.205Z,8.07
2023-02-06T01:23:54.446Z,15.80
2023-02-06T01:26:22.234Z,8.30
2023-02-06T01:28:48.981Z,9.68
2023-02-06T01:31:19.912Z,13.40
2023-02-06T01:33:47.081Z,11.57
2023-02-06T01:36:13.874Z,7.30
2023-02-06T01:38:40.888Z,10.45
2023-02-06T01:41:08.012Z,10.48
2023-02-06T01:43:35.904Z,5.65
2023-02-06T01:46:02.415Z,10.75
2023-02-06T01:48:33.795Z,9.85
2023-02-06T01:51:00.603Z,8.55
2023-02-06T01:53:27.324Z,8.30
2023-02-06T01:55:55.824Z,11.05
2023-02-06T01:58:31.188Z,12.52
2023-02-06T02:00:58.619Z,7.65
2023-02-06T02:03:25.651Z,8.82
2023-02-06T02:05:53.583Z,6.20
2023-02-06T02:08:26.594Z,8.13
2023-02-06T02:10:53.075Z,4.40
2023-02-06T02:13:19.487Z,4.97
2023-02-06T02:15:48.594Z,4.05
2023-02-06T02:18:18.069Z,4.80
2023-02-06T02:20:44.480Z,4.72
2023-02-06T02:23:32.856Z,4.05
2023-02-06T02:26:05.522Z,4.07
2023-02-06T02:28:53.761Z,3.38
2023-02-06T02:31:23.165Z,2.35
2023-02-06T02:34:08.525Z,2.17
2023-02-06T02:36:43.639Z,2.17
2023-02-06T02:39:31.365Z,1.60
2023-02-06T02:42:16.618Z,1.90
2023-02-06T02:44:43.065Z,1.85
2023-02-06T02:47:12.389Z,2.03
2023-02-06T02:49:39.552Z,1.48
2023-02-06T02:52:06.049Z,2.10
2023-02-06T02:54:32.478Z,1.60
2023-02-06T02:57:02.759Z,1.90
2023-02-06T02:59:32.086Z,2.05
2023-02-06T03:02:07.955Z,2.15
2023-02-06T03:04:40.758Z,3.03
2023-02-06T03:07:16.814Z,4.03
2023-02-06T03:09:52.471Z,3.45
2023-02-06T03:12:39.686Z,2.10
2023-02-06T03:15:24.832Z,2.95
2023-02-06T03:18:00.682Z,1.60
2023-02-06T03:20:27.856Z,6.97
2023-02-06T03:22:54.891Z,3.25
2023-02-06T03:25:25.129Z,3.05
2023-02-06T03:27:52.725Z,2.05
2023-02-06T03:30:20.153Z,1.65
2023-02-06T03:32:48.127Z,2.00
2023-02-06T03:35:17.408Z,1.95
2023-02-06T03:37:44.313Z,1.45
2023-02-06T03:40:11.210Z,1.98
2023-02-06T03:42:40.051Z,2.15
2023-02-06T03:45:09.301Z,2.92
2023-02-06T03:47:39.643Z,2.35
2023-02-06T03:50:07.125Z,3.28
2023-02-06T03:52:37.168Z,5.63
2023-02-06T03:55:12.558Z,4.72
2023-02-06T03:57:39.383Z,4.88
2023-02-06T04:00:06.353Z,2.55
2023-02-06T04:02:32.820Z,5.97
2023-02-06T04:04:59.208Z,3.60
2023-02-06T04:07:26.694Z,3.45
2023-02-06T04:09:53.448Z,2.25
2023-02-06T04:12:20.350Z,2.25
2023-02-06T04:14:49.970Z,3.03
2023-02-06T04:17:28.187Z,3.20
2023-02-06T04:20:03.823Z,2.65
2023-02-06T04:22:30.328Z,2.10
2023-02-06T04:24:56.712Z,1.65
2023-02-06T04:27:23.208Z,2.33
2023-02-06T04:29:49.741Z,2.67
2023-02-06T04:32:16.118Z,2.60
2023-02-06T04:34:42.524Z,2.90
2023-02-06T04:37:12.277Z,2.15
2023-02-06T04:39:38.987Z,2.10
2023-02-06T04:42:05.970Z,1.92
2023-02-06T04:44:33.666Z,2.42
2023-02-06T04:47:00.763Z,2.03
2023-02-06T04:49:27.317Z,2.13
2023-02-06T04:51:53.882Z,2.33
2023-02-06T04:54:20.280Z,2.25
2023-02-06T04:56:47.024Z,1.90
2023-02-06T04:59:13.499Z,1.80
2023-02-06T05:01:39.927Z,2.05
2023-02-06T05:04:06.648Z,2.28
2023-02-06T05:06:33.126Z,1.92
2023-02-06T05:08:59.657Z,2.65
2023-02-06T05:11:26.496Z,2.33
2023-02-06T05:13:52.999Z,2.40
2023-02-06T05:16:19.816Z,2.17
2023-02-06T05:18:48.010Z,1.60
2023-02-06T05:21:14.822Z,2.10
2023-02-06T05:23:41.224Z,2.53
2023-02-06T05:26:07.692Z,2.83
2023-02-06T05:28:34.116Z,2.75
2023-02-06T05:31:01.461Z,2.30
2023-02-06T05:33:28.056Z,2.08
2023-02-06T05:35:54.468Z,2.72
2023-02-06T05:38:20.852Z,2.78
2023-02-06T05:40:50.119Z,3.05
2023-02-06T05:43:16.492Z,3.28
2023-02-06T05:45:43.025Z,2.65
2023-02-06T05:48:09.425Z,2.47
2023-02-06T05:50:35.792Z,2.20
2023-02-06T05:53:02.256Z,2.65
2023-02-06T05:55:28.687Z,2.30
2023-02-06T05:57:55.239Z,2.90
2023-02-06T06:00:21.889Z,2.42
2023-02-06T06:02:48.281Z,3.15
2023-02-06T06:05:14.701Z,4.40
2023-02-06T06:07:41.151Z,3.25
2023-02-06T06:10:08.164Z,3.90
2023-02-06T06:12:34.570Z,4.07
2023-02-06T06:15:01.003Z,4.10
2023-02-06T06:17:27.394Z,2.90
2023-02-06T06:19:53.761Z,3.90
2023-02-06T06:22:20.338Z,3.88
2023-02-06T06:24:46.798Z,4.05
2023-02-06T06:27:13.246Z,4.13
2023-02-06T06:29:39.630Z,3.30
2023-02-06T06:32:06.054Z,2.75
2023-02-06T06:34:32.529Z,3.83
2023-02-06T06:36:59.041Z,2.97
2023-02-06T06:39:27.765Z,3.88
2023-02-06T06:41:54.196Z,4.93
2023-02-06T06:44:20.818Z,4.20
2023-02-06T06:46:47.252Z,3.70
2023-02-06T06:49:13.654Z,3.47
2023-02-06T06:51:40.082Z,3.22
2023-02-06T06:54:06.556Z,2.72
2023-02-06T06:56:32.973Z,3.30
2023-02-06T06:58:59.412Z,2.85
2023-02-06T07:01:25.957Z,3.38
2023-02-06T07:03:52.376Z,3.00
2023-02-06T07:06:18.822Z,3.35
2023-02-06T07:08:45.203Z,3.20
2023-02-06T07:11:12.483Z,4.00
2023-02-06T07:13:38.941Z,3.30
2023-02-06T07:16:05.609Z,3.00
2023-02-06T07:18:32.740Z,3.38
2023-02-06T07:21:01.003Z,3.70
2023-02-06T07:23:27.464Z,3.05
2023-02-06T07:25:54.134Z,3.95
2023-02-06T07:28:20.535Z,3.53
2023-02-06T07:30:47.085Z,4.05
2023-02-06T07:33:13.513Z,3.90
2023-02-06T07:35:41.661Z,4.43
2023-02-06T07:38:08.168Z,3.85
2023-02-06T07:40:44.748Z,6.80
2023-02-06T07:43:11.827Z,4.15
2023-02-06T07:45:38.644Z,5.45
2023-02-06T07:48:05.721Z,12.25
2023-02-06T07:50:32.289Z,6.00
2023-02-06T07:52:58.852Z,8.57
2023-02-06T07:55:25.314Z,5.35
2023-02-06T07:57:51.723Z,5.03
2023-02-06T08:00:18.346Z,5.30
2023-02-06T08:02:44.779Z,7.78
2023-02-06T08:05:11.227Z,10.20
2023-02-06T08:07:37.907Z,11.15
2023-02-06T08:10:04.346Z,7.20
2023-02-06T08:12:30.764Z,7.30
2023-02-06T08:14:57.192Z,13.35
2023-02-06T08:17:23.624Z,15.85
2023-02-06T08:19:50.093Z,15.82
2023-02-06T08:22:16.501Z,15.80
2023-02-06T08:24:42.946Z,15.27
2023-02-06T08:27:09.366Z,9.77
2023-02-06T08:29:40.376Z,6.18
2023-02-06T08:32:06.794Z,10.40
2023-02-06T08:34:33.378Z,6.35
2023-02-06T08:36:59.782Z,5.60
2023-02-06T08:39:26.274Z,5.25
2023-02-06T08:41:52.681Z,5.38
2023-02-06T08:44:19.209Z,4.57
2023-02-06T08:46:46.583Z,3.85
2023-02-06T08:49:14.385Z,4.47
2023-02-06T08:51:40.865Z,4.57
2023-02-06T08:54:14.763Z,4.78
2023-02-06T08:56:41.516Z,3.80
2023-02-06T08:59:08.302Z,3.90
2023-02-06T09:01:35.853Z,2.95
2023-02-06T09:04:04.200Z,3.13
2023-02-06T09:06:30.718Z,2.53
2023-02-06T09:08:57.552Z,2.33
2023-02-06T09:11:25.136Z,1.85
2023-02-06T09:13:53.609Z,2.30
2023-02-06T09:16:21.288Z,2.17
2023-02-06T09:18:52.213Z,1.98
2023-02-06T09:21:23.881Z,2.17
2023-02-06T09:23:52.132Z,2.55
2023-02-06T09:26:19.635Z,1.63
2023-02-06T09:28:46.139Z,1.73
2023-02-06T09:31:13.000Z,1.25
2023-02-06T09:33:39.745Z,1.17
2023-02-06T09:36:07.474Z,1.40
2023-02-06T09:38:34.345Z,1.20
2023-02-06T09:41:02.088Z,1.45
2023-02-06T09:43:30.147Z,1.52
2023-02-06T09:46:01.021Z,1.50
2023-02-06T09:48:28.735Z,1.48
2023-02-06T09:51:06.790Z,1.73
2023-02-06T09:53:45.717Z,1.52
2023-02-06T09:56:12.184Z,1.33
2023-02-06T09:58:59.989Z,1.60
2023-02-06T10:01:29.047Z,1.58
2023-02-06T10:04:13.083Z,1.17
2023-02-06T10:06:42.834Z,1.48
2023-02-06T10:09:17.305Z,1.35
2023-02-06T10:11:55.151Z,1.58
2023-02-06T10:14:28.368Z,1.52
2023-02-06T10:16:57.566Z,1.50
2023-02-06T10:19:43.824Z,1.35
2023-02-06T10:22:14.550Z,1.55
2023-02-06T10:24:52.514Z,1.40
2023-02-06T10:27:19.522Z,1.45
2023-02-06T10:29:46.479Z,1.30
2023-02-06T10:32:27.039Z,1.00
2023-02-06T10:34:59.326Z,1.00
2023-02-06T10:37:47.681Z,0.93
2023-02-06T10:40:14.136Z,0.98
2023-02-06T10:42:45.515Z,1.13
2023-02-06T10:45:19.659Z,1.10
2023-02-06T10:47:46.914Z,1.25
2023-02-06T10:50:23.390Z,0.90
2023-02-06T10:52:49.934Z,1.15
2023-02-06T10:55:30.138Z,1.38
2023-02-06T10:58:02.530Z,1.00
2023-02-06T11:00:29.197Z,1.17
2023-02-06T11:03:07.073Z,0.98
2023-02-06T11:05:35.299Z,1.58
2023-02-06T11:08:19.954Z,1.20
2023-02-06T11:10:46.636Z,1.15
2023-02-06T11:13:30.577Z,1.17
2023-02-06T11:16:05.171Z,1.27
2023-02-06T11:18:34.497Z,1.35
2023-02-06T11:21:01.010Z,1.33
2023-02-06T11:23:28.765Z,1.58
2023-02-06T11:26:05.663Z,1.55
2023-02-06T11:28:34.451Z,1.58
2023-02-06T11:31:05.084Z,2.05
2023-02-06T11:33:49.918Z,1.83
2023-02-06T11:36:35.107Z,2.33
2023-02-06T11:39:06.226Z,2.70
2023-02-06T11:41:33.392Z,2.53
2023-02-06T11:44:06.443Z,2.78
2023-02-06T11:46:35.368Z,3.30
2023-02-06T11:49:06.871Z,3.22
2023-02-06T11:51:45.581Z,3.53
2023-02-06T11:54:22.613Z,2.92
2023-02-06T11:56:56.580Z,2.65
2023-02-06T11:59:27.243Z,3.05
2023-02-06T12:01:53.808Z,3.13
2023-02-06T12:04:26.005Z,2.70
2023-02-06T12:06:54.236Z,3.30
2023-02-06T12:09:20.746Z,2.50
2023-02-06T12:11:55.925Z,2.90
2023-02-06T12:14:24.779Z,2.60
2023-02-06T12:16:51.958Z,3.70
2023-02-06T12:19:24.295Z,2.78
2023-02-06T12:21:54.521Z,2.70
2023-02-06T12:24:37.575Z,2.45
2023-02-06T12:27:13.968Z,2.63
2023-02-06T12:29:42.379Z,2.75
2023-02-06T12:32:18.503Z,2.83
2023-02-06T12:35:04.222Z,2.70
2023-02-06T12:37:41.373Z,3.10
2023-02-06T12:40:34.122Z,2.53
2023-02-06T12:43:02.377Z,2.42
2023-02-06T12:45:55.314Z,2.20
2023-02-06T12:48:25.098Z,2.10
2023-02-06T12:50:58.259Z,1.80
2023-02-06T12:53:27.781Z,2.10
2023-02-06T12:55:59.618Z,1.90
2023-02-06T12:58:32.988Z,2.13
2023-02-06T13:01:25.246Z,2.33
2023-02-06T13:03:59.328Z,2.45
2023-02-06T13:06:27.637Z,1.88
2023-02-06T13:09:02.833Z,2.22
2023-02-06T13:11:32.576Z,2.10
2023-02-06T13:14:00.746Z,1.98
2023-02-06T13:16:42.662Z,2.45
2023-02-06T13:19:20.489Z,2.80
2023-02-06T13:22:10.072Z,2.88
2023-02-06T13:24:37.235Z,2.60
2023-02-06T13:27:03.659Z,2.50
2023-02-06T13:30:00.949Z,2.53
2023-02-06T13:32:30.576Z,2.10
2023-02-06T13:35:13.540Z,3.25
2023-02-06T13:37:41.498Z,2.40
2023-02-06T13:40:22.915Z,4.97
2023-02-06T13:42:49.368Z,2.45
2023-02-06T13:45:24.878Z,2.90
2023-02-06T13:48:06.854Z,2.55
2023-02-06T13:50:39.156Z,2.40
2023-02-06T13:53:12.665Z,2.00
2023-02-06T13:55:55.035Z,3.40
2023-02-06T13:58:27.531Z,2.28
2023-02-06T14:00:54.616Z,2.35
2023-02-06T14:03:24.029Z,2.65
2023-02-06T14:06:09.351Z,2.80
2023-02-06T14:08:47.990Z,2.00
2023-02-06T14:11:26.915Z,2.63
2023-02-06T14:14:01.260Z,2.45
2023-02-06T14:16:33.535Z,2.60
2023-02-06T14:19:18.773Z,2.22
2023-02-06T14:21:51.167Z,2.47
2023-02-06T14:24:17.527Z,2.70
2023-02-06T14:27:02.695Z,3.13
2023-02-06T14:29:29.111Z,2.40
2023-02-06T14:32:01.546Z,2.50
2023-02-06T14:34:45.727Z,2.30
2023-02-06T14:37:31.373Z,2.20
2023-02-06T14:40:04.552Z,1.85
2023-02-06T14:42:57.495Z,2.28
2023-02-06T14:45:41.644Z,2.17
2023-02-06T14:48:20.153Z,1.85
2023-02-06T14:50:49.521Z,2.03
2023-02-06T14:53:27.421Z,2.08
2023-02-06T14:56:05.564Z,1.90
2023-02-06T14:58:32.102Z,2.25
2023-02-06T15:01:11.413Z,1.70
2023-02-06T15:03:40.080Z,2.22
2023-02-06T15:06:07.910Z,2.15
2023-02-06T15:08:34.496Z,2.03
2023-02-06T15:11:02.374Z,2.17
2023-02-06T15:13:36.140Z,2.45
2023-02-06T15:16:04.871Z,2.22
2023-02-06T15:18:31.337Z,1.75
2023-02-06T15:21:02.981Z,2.03
2023-02-06T15:23:29.355Z,2.10
2023-02-06T15:26:21.473Z,2.17
2023-02-06T15:28:47.986Z,2.17
2023-02-06T15:31:21.800Z,2.28
2023-02-06T15:33:51.285Z,1.77
2023-02-06T15:36:22.041Z,2.03
2023-02-06T15:38:49.027Z,1.60
2023-02-06T15:41:15.955Z,2.03
2023-02-06T15:43:44.220Z,2.13
2023-02-06T15:46:10.818Z,2.50
2023-02-06T15:48:38.836Z,2.28
2023-02-06T15:51:08.256Z,3.03
2023-02-06T15:53:39.174Z,2.10
2023-02-06T15:56:07.593Z,2.00
2023-02-06T15:58:34.623Z,2.35
2023-02-06T16:01:02.215Z,3.10
2023-02-06T16:03:31.237Z,2.38
2023-02-06T16:05:57.784Z,2.97
2023-02-06T16:08:27.177Z,2.83
2023-02-06T16:10:56.816Z,3.20
2023-02-06T16:13:24.887Z,3.80
2023-02-06T16:16:05.803Z,2.30
2023-02-06T16:18:33.671Z,3.42
2023-02-06T16:21:18.420Z,3.63
2023-02-06T16:23:48.455Z,3.63
2023-02-06T16:26:14.859Z,4.05
2023-02-06T16:28:46.467Z,3.38
2023-02-06T16:31:14.424Z,3.30
2023-02-06T16:33:42.451Z,3.88
2023-02-06T16:36:11.802Z,3.17
2023-02-06T16:38:38.235Z,3.67
2023-02-06T16:41:22.419Z,3.55
2023-02-06T16:43:48.800Z,3.80
2023-02-06T16:46:15.222Z,3.78
2023-02-06T16:48:41.641Z,5.53
2023-02-06T16:51:10.257Z,5.25
2023-02-06T16:53:38.515Z,4.15
2023-02-06T16:56:05.264Z,4.18
2023-02-06T16:58:32.356Z,4.50
2023-02-06T17:00:59.112Z,4.70
2023-02-06T17:03:25.602Z,4.97
2023-02-06T17:05:54.556Z,5.30
2023-02-06T17:08:22.483Z,8.05
2023-02-06T17:10:49.240Z,7.10
2023-02-06T17:13:19.729Z,5.30
2023-02-06T17:15:47.266Z,5.35
2023-02-06T17:18:17.831Z,5.15
2023-02-06T17:20:45.983Z,5.22
2023-02-06T17:23:12.548Z,5.68
2023-02-06T17:25:39.340Z,5.07
2023-02-06T17:28:07.541Z,5.68
2023-02-06T17:30:34.749Z,6.32
2023-02-06T17:33:01.353Z,6.70
2023-02-06T17:35:27.867Z,5.13
2023-02-06T17:37:54.428Z,6.40
2023-02-06T17:40:23.612Z,4.88
2023-02-06T17:42:50.184Z,5.32
2023-02-06T17:45:16.735Z,4.57
2023-02-06T17:47:43.344Z,4.28
2023-02-06T17:50:10.528Z,4.95
2023-02-06T17:52:36.954Z,5.28
2023-02-06T17:55:03.448Z,5.70
2023-02-06T17:57:30.788Z,5.68
2023-02-06T17:59:59.096Z,5.65
2023-02-06T18:02:25.636Z,5.15
2023-02-06T18:04:54.117Z,6.50
2023-02-06T18:07:21.180Z,7.80
2023-02-06T18:09:48.009Z,5.65
2023-02-06T18:12:15.457Z,6.85
2023-02-06T18:14:41.886Z,6.45
2023-02-06T18:17:10.567Z,6.93
2023-02-06T18:19:42.161Z,6.65
2023-02-06T18:22:09.794Z,7.63
2023-02-06T18:24:36.223Z,7.55
2023-02-06T18:27:03.283Z,7.75
2023-02-06T18:29:43.459Z,9.30
2023-02-06T18:32:14.885Z,8.23
2023-02-06T18:34:41.445Z,8.70
2023-02-06T18:37:08.774Z,7.95
2023-02-06T18:39:35.179Z,9.32
2023-02-06T18:42:20.059Z,8.43
2023-02-06T18:44:46.569Z,8.32
2023-02-06T18:47:15.943Z,8.82
2023-02-06T18:49:42.380Z,7.35
2023-02-06T18:52:08.821Z,7.53
2023-02-06T18:54:35.668Z,7.90
2023-02-06T18:57:02.512Z,8.35
2023-02-06T18:59:29.144Z,9.45
2023-02-06T19:01:56.221Z,7.50
2023-02-06T19:04:22.855Z,9.25
2023-02-06T19:06:49.464Z,8.98
2023-02-06T19:09:17.292Z,8.10
2023-02-06T19:11:43.683Z,8.30
2023-02-06T19:14:15.115Z,8.10
2023-02-06T19:16:44.498Z,7.20
2023-02-06T19:19:11.511Z,8.38
2023-02-06T19:21:40.020Z,7.72
2023-02-06T19:24:07.297Z,7.70
2023-02-06T19:26:34.043Z,8.40
2023-02-06T19:29:00.500Z,8.10
2023-02-06T19:31:26.918Z,6.57
2023-02-06T19:33:58.614Z,6.72
2023-02-06T19:36:25.895Z,7.35
2023-02-06T19:38:59.431Z,6.72
2023-02-06T19:41:27.080Z,7.05
2023-02-06T19:43:54.318Z,7.63
2023-02-06T19:46:22.126Z,8.23
2023-02-06T19:48:49.286Z,5.88
2023-02-06T19:51:21.111Z,8.30
2023-02-06T19:53:51.415Z,7.05
2023-02-06T19:56:22.535Z,7.95
2023-02-06T19:58:54.133Z,7.03
2023-02-06T20:01:20.542Z,7.57
2023-02-06T20:03:47.136Z,7.43
2023-02-06T20:06:14.217Z,6.07
2023-02-06T20:08:42.999Z,7.97
2023-02-06T20:11:13.765Z,7.25
2023-02-06T20:16:13.104Z,7.85
2023-02-06T20:18:39.586Z,8.93
2023-02-06T20:21:06.138Z,9.60
2023-02-06T20:23:38.283Z,7.65
2023-02-06T20:26:06.421Z,11.25
2023-02-06T20:28:32.815Z,10.18
2023-02-06T20:30:59.305Z,11.52
2023-02-06T20:33:26.397Z,10.25
2023-02-06T20:35:52.927Z,10.15
2023-02-06T20:38:19.361Z,12.98
2023-02-06T20:40:49.776Z,11.40
2023-02-06T20:43:19.172Z,11.23
2023-02-06T20:45:45.605Z,7.68
2023-02-06T20:48:12.174Z,11.02
2023-02-06T20:50:38.777Z,7.75
2023-02-06T20:53:05.409Z,8.90
2023-02-06T20:55:31.795Z,7.40
2023-02-06T20:57:58.206Z,6.55
2023-02-06T21:00:24.601Z,7.30
2023-02-06T21:02:53.020Z,7.63
2023-02-06T21:05:20.246Z,8.45
2023-02-06T21:07:46.625Z,7.38
2023-02-06T21:10:13.130Z,8.43
2023-02-06T21:12:39.591Z,7.72
2023-02-06T21:15:06.155Z,7.90
2023-02-06T21:17:32.675Z,7.80
2023-02-06T21:19:59.130Z,8.10
2023-02-06T21:22:25.676Z,7.40
2023-02-06T21:24:52.082Z,7.07
2023-02-06T21:27:18.468Z,7.13
2023-02-06T21:29:44.866Z,7.32
2023-02-06T21:32:13.888Z,6.97
2023-02-06T21:34:40.926Z,8.25
2023-02-06T21:37:07.323Z,7.22
2023-02-06T21:39:33.752Z,8.63
2023-02-06T21:42:03.395Z,8.00
2023-02-06T21:44:29.810Z,7.97
2023-02-06T21:46:56.248Z,7.57
2023-02-06T21:49:23.324Z,9.50
2023-02-06T21:51:50.427Z,8.93
2023-02-06T21:54:17.076Z,7.88
2023-02-06T21:56:43.602Z,7.38
2023-02-06T21:59:12.486Z,7.82
2023-02-06T22:01:40.827Z,8.10
2023-02-06T22:04:07.994Z,8.90
2023-02-06T22:06:37.608Z,10.05
2023-02-06T22:09:07.745Z,10.23
2023-02-06T22:11:38.082Z,9.23
2023-02-06T22:14:06.393Z,7.35
2023-02-06T22:16:32.853Z,10.55
2023-02-06T22:19:00.664Z,8.63
2023-02-06T22:21:27.915Z,8.30
2023-02-06T22:23:58.918Z,8.82
2023-02-06T22:26:25.677Z,9.45
2023-02-06T22:28:52.185Z,9.13
2023-02-06T22:31:22.664Z,8.40
2023-02-06T22:33:49.513Z,9.85
2023-02-06T22:36:17.775Z,10.10
2023-02-06T22:38:45.364Z,14.18
2023-02-06T22:41:13.099Z,10.25
2023-02-06T22:43:39.746Z,9.60
2023-02-06T22:46:07.055Z,9.60
2023-02-06T22:48:33.759Z,12.40
2023-02-06T22:51:06.955Z,10.70
2023-02-06T22:53:33.645Z,10.77
2023-02-06T22:56:22.768Z,10.77
2023-02-06T22:58:49.745Z,11.32
2023-02-06T23:01:17.160Z,11.43
2023-02-06T23:03:43.550Z,14.05
2023-02-06T23:06:10.862Z,12.25
2023-02-06T23:08:37.369Z,12.50
2023-02-06T23:11:05.140Z,12.75
2023-02-06T23:13:31.586Z,14.35
2023-02-06T23:15:58.664Z,12.65
2023-02-06T23:18:25.709Z,13.15
2023-02-06T23:20:56.230Z,12.45
2023-02-06T23:23:22.764Z,16.75
2023-02-06T23:25:49.384Z,17.20
2023-02-06T23:28:15.825Z,16.30
2023-02-06T23:30:42.439Z,14.20
2023-02-06T23:33:08.939Z,17.52
2023-02-06T23:35:36.625Z,16.70
2023-02-06T23:38:03.272Z,20.42
2023-02-06T23:40:30.083Z,19.23
2023-02-06T23:42:56.567Z,21.23
2023-02-06T23:45:22.973Z,25.58
2023-02-06T23:47:50.368Z,19.98
2023-02-06T23:50:17.111Z,23.55
2023-02-06T23:52:43.497Z,15.05
2023-02-06T23:55:10.128Z,22.95
2023-02-06T23:57:37.623Z,18.90
